Time;durP1;ratioP1;P1;durP2;ratioP2;P2;SDS_P1;SDS_P2;PMS_P1;PMS_P2;Temp;Humidity;BMP_temperature;BMP_pressure;BME280_temperature;BME280_humidity;BME280_pressure;Samples;Min_cycle;Max_cycle;Signal;HPM_P1;HPM_P2
2021/07/21 00:00:50;;;;;;;11.38;5.82;;;19.70;82.60;;;;;;5008195;28;20387;-85
2021/07/21 00:03:16;;;;;;;9.82;6.80;;;19.70;82.70;;;;;;4992804;28;20380;-86
2021/07/21 00:05:42;;;;;;;8.35;6.05;;;19.70;82.70;;;;;;4992399;28;20475;-86
2021/07/21 00:08:08;;;;;;;8.30;5.75;;;19.70;82.80;;;;;;4991732;28;20032;-86
2021/07/21 00:10:35;;;;;;;8.13;5.55;;;19.60;82.90;;;;;;4995845;28;20026;-85
2021/07/21 00:18:25;;;;;;;8.43;5.75;;;19.50;83.60;;;;;;5010259;28;20030;-86
2021/07/21 00:20:51;;;;;;;9.27;5.60;;;19.50;83.80;;;;;;4970684;28;20049;-86
2021/07/21 00:23:18;;;;;;;8.82;6.30;;;19.50;83.70;;;;;;4993658;28;20026;-86
2021/07/21 00:25:45;;;;;;;9.32;6.28;;;19.50;83.80;;;;;;4979419;28;20034;-86
2021/07/21 00:28:11;;;;;;;8.23;6.03;;;19.40;83.70;;;;;;4995333;28;20022;-86
2021/07/21 00:30:37;;;;;;;8.70;6.15;;;19.40;84.00;;;;;;4976236;28;20065;-85
2021/07/21 00:33:03;;;;;;;6.85;5.35;;;19.40;84.00;;;;;;4992150;28;20058;-85
2021/07/21 00:35:29;;;;;;;9.52;6.43;;;19.40;84.10;;;;;;4974364;28;20048;-86
2021/07/21 00:37:55;;;;;;;8.05;5.95;;;19.40;84.40;;;;;;4985781;28;20471;-85
2021/07/21 00:40:21;;;;;;;8.32;6.05;;;19.30;84.30;;;;;;4993888;28;20026;-85
2021/07/21 00:42:47;;;;;;;9.85;6.72;;;19.30;84.70;;;;;;4979376;28;20430;-86
2021/07/21 00:45:13;;;;;;;9.02;6.45;;;19.20;84.10;;;;;;4991598;28;20442;-87
2021/07/21 00:47:39;;;;;;;8.80;5.82;;;19.10;84.20;;;;;;4995237;28;20017;-86
2021/07/21 00:50:07;;;;;;;11.43;6.80;;;19.00;84.80;;;;;;5012551;28;20421;-86
2021/07/21 00:52:35;;;;;;;8.38;6.15;;;18.90;85.30;;;;;;4991634;28;20398;-86
2021/07/21 00:55:01;;;;;;;8.00;5.90;;;18.80;85.80;;;;;;5012066;28;20034;-86
2021/07/21 00:57:27;;;;;;;8.25;6.00;;;18.70;86.20;;;;;;4994949;28;20052;-85
2021/07/21 00:59:54;;;;;;;9.13;6.60;;;18.70;86.30;;;;;;5000046;28;20490;-87
2021/07/21 01:02:19;;;;;;;8.18;5.85;;;18.70;86.40;;;;;;4964954;28;20481;-86
2021/07/21 01:04:46;;;;;;;8.80;6.57;;;18.70;86.40;;;;;;4994704;28;20053;-85
2021/07/21 01:07:12;;;;;;;9.55;6.50;;;18.70;86.70;;;;;;4967202;28;20053;-86
2021/07/21 01:09:42;;;;;;;9.65;6.43;;;18.70;87.00;;;;;;4991400;28;20026;-85
2021/07/21 01:12:16;;;;;;;12.30;6.33;;;18.70;87.00;;;;;;4984169;28;20037;-86
2021/07/21 01:14:57;;;;;;;10.32;6.22;;;18.70;87.10;;;;;;4988337;28;20113;-86
2021/07/21 01:17:27;;;;;;;9.70;6.28;;;18.70;87.20;;;;;;4994339;28;20026;-86
2021/07/21 01:20:18;;;;;;;9.93;5.97;;;18.70;86.90;;;;;;4988918;28;20027;-85
2021/07/21 01:22:46;;;;;;;9.18;6.07;;;18.70;87.00;;;;;;4991527;28;20022;-85
2021/07/21 01:25:15;;;;;;;8.45;6.10;;;18.70;86.90;;;;;;4993734;28;20102;-85
2021/07/21 01:27:53;;;;;;;10.50;6.22;;;18.70;87.10;;;;;;4991279;28;20153;-86
2021/07/21 01:30:31;;;;;;;8.15;5.90;;;18.60;86.90;;;;;;4997095;28;20434;-85
2021/07/21 01:33:11;;;;;;;9.38;6.60;;;18.70;87.00;;;;;;4994496;28;20095;-85
2021/07/21 01:35:43;;;;;;;9.63;6.43;;;18.60;87.20;;;;;;5012292;28;20026;-85
2021/07/21 01:38:14;;;;;;;9.15;6.10;;;18.60;87.00;;;;;;4993957;28;20021;-85
2021/07/21 01:40:44;;;;;;;9.48;6.57;;;18.60;87.10;;;;;;4987110;28;20501;-85
2021/07/21 01:43:14;;;;;;;9.65;6.03;;;18.50;87.10;;;;;;5005842;28;20026;-86
2021/07/21 01:45:44;;;;;;;10.23;6.60;;;18.50;87.20;;;;;;5011530;28;20077;-85
2021/07/21 01:48:10;;;;;;;8.68;6.20;;;18.50;87.60;;;;;;5012149;28;20033;-86
2021/07/21 01:50:37;;;;;;;9.48;6.28;;;18.50;87.70;;;;;;4990739;28;20038;-86
2021/07/21 01:53:02;;;;;;;8.65;5.80;;;18.50;87.80;;;;;;4992945;28;20033;-85
2021/07/21 01:55:29;;;;;;;9.35;6.32;;;18.50;87.70;;;;;;4978162;28;20474;-86
2021/07/21 01:57:56;;;;;;;9.23;6.32;;;18.50;88.00;;;;;;4990795;28;20030;-86
2021/07/21 02:00:23;;;;;;;9.98;6.47;;;18.40;88.00;;;;;;4987227;28;20118;-86
2021/07/21 02:02:54;;;;;;;8.15;6.10;;;18.40;88.20;;;;;;5012064;28;20030;-86
2021/07/21 02:05:22;;;;;;;8.27;5.93;;;18.40;87.80;;;;;;4984435;28;20375;-86
2021/07/21 02:07:49;;;;;;;11.10;6.95;;;18.40;87.90;;;;;;4978129;28;20821;-85
2021/07/21 02:10:21;;;;;;;8.15;5.72;;;18.30;87.60;;;;;;5010393;28;20038;-86
2021/07/21 02:12:55;;;;;;;9.88;6.18;;;18.30;87.60;;;;;;4994092;28;20017;-86
2021/07/21 02:15:23;;;;;;;8.13;5.80;;;18.30;87.50;;;;;;4991441;28;20046;-85
2021/07/21 02:17:49;;;;;;;9.38;6.47;;;18.20;87.80;;;;;;4994823;28;20030;-85
2021/07/21 02:20:14;;;;;;;10.10;6.35;;;18.20;88.00;;;;;;4976012;28;20355;-85
2021/07/21 02:22:43;;;;;;;9.35;6.05;;;18.20;88.20;;;;;;4979978;28;20030;-85
2021/07/21 02:25:09;;;;;;;9.63;6.45;;;18.20;88.00;;;;;;4970643;28;20406;-85
2021/07/21 02:27:35;;;;;;;9.57;5.80;;;18.10;87.90;;;;;;4997686;28;20037;-85
2021/07/21 02:30:07;;;;;;;9.75;5.85;;;18.10;87.90;;;;;;4997547;28;20030;-85
2021/07/21 02:32:39;;;;;;;9.25;6.20;;;18.10;87.90;;;;;;4996972;28;20037;-85
2021/07/21 02:35:06;;;;;;;9.80;6.15;;;18.00;88.00;;;;;;4994779;28;20145;-86
2021/07/21 02:37:32;;;;;;;8.10;6.00;;;18.00;88.00;;;;;;4986169;28;20049;-86
2021/07/21 02:39:58;;;;;;;8.25;5.57;;;18.00;88.30;;;;;;4997466;28;20026;-86
2021/07/21 02:42:24;;;;;;;7.95;5.88;;;18.00;88.30;;;;;;4997185;28;20026;-87
2021/07/21 02:44:52;;;;;;;10.43;6.22;;;18.00;88.40;;;;;;4997078;28;20053;-85
2021/07/21 02:47:19;;;;;;;10.18;5.90;;;18.00;88.80;;;;;;4982422;28;20058;-86
2021/07/21 02:49:47;;;;;;;9.80;6.43;;;17.90;88.80;;;;;;5012753;28;20489;-86
2021/07/21 02:52:38;;;;;;;10.25;6.53;;;17.90;89.10;;;;;;4980992;28;20367;-86
2021/07/21 02:55:06;;;;;;;8.95;5.88;;;17.90;89.10;;;;;;5014992;28;20054;-86
2021/07/21 02:57:47;;;;;;;8.52;5.95;;;17.90;89.00;;;;;;4996746;28;20036;-86
2021/07/21 03:00:15;;;;;;;8.83;6.13;;;17.90;89.30;;;;;;4997328;28;20053;-86
2021/07/21 03:02:41;;;;;;;12.68;6.20;;;17.80;89.20;;;;;;4978239;28;20019;-86
2021/07/21 03:05:10;;;;;;;9.60;6.32;;;17.80;89.20;;;;;;4986746;28;20033;-86
2021/07/21 03:07:38;;;;;;;9.27;6.30;;;17.80;89.60;;;;;;4996898;28;20026;-86
2021/07/21 03:10:06;;;;;;;11.93;6.55;;;17.80;89.90;;;;;;5014278;28;20033;-87
2021/07/21 03:12:36;;;;;;;10.15;6.60;;;17.80;89.90;;;;;;4980974;28;20037;-85
2021/07/21 03:15:04;;;;;;;9.73;6.55;;;17.80;89.70;;;;;;5013384;28;20096;-85
2021/07/21 03:17:36;;;;;;;8.93;6.13;;;17.70;89.80;;;;;;4977382;28;20284;-86
2021/07/21 03:20:04;;;;;;;8.93;6.30;;;17.70;89.60;;;;;;4979806;28;20034;-85
2021/07/21 03:22:30;;;;;;;8.50;6.43;;;17.70;89.60;;;;;;4995640;28;20019;-87
2021/07/21 03:24:56;;;;;;;9.05;6.10;;;17.60;89.50;;;;;;4976875;28;20049;-86
2021/07/21 03:27:24;;;;;;;9.77;6.55;;;17.60;89.60;;;;;;4987336;28;20089;-86
2021/07/21 03:29:52;;;;;;;8.95;6.28;;;17.60;89.70;;;;;;4979730;28;20030;-88
2021/07/21 03:32:20;;;;;;;8.07;6.00;;;17.60;89.80;;;;;;4996695;28;20069;-86
2021/07/21 03:34:47;;;;;;;8.55;5.57;;;17.60;89.90;;;;;;4996638;28;20022;-86
2021/07/21 03:37:14;;;;;;;9.80;6.53;;;17.50;90.00;;;;;;4967073;28;20439;-85
2021/07/21 03:39:40;;;;;;;10.40;6.38;;;17.50;90.00;;;;;;4994055;28;20033;-87
2021/07/21 03:42:07;;;;;;;9.48;6.38;;;17.50;90.20;;;;;;4980565;28;20051;-86
2021/07/21 03:44:34;;;;;;;9.07;6.55;;;17.50;90.20;;;;;;4976157;28;20065;-85
2021/07/21 03:47:01;;;;;;;12.18;6.95;;;17.50;90.30;;;;;;4995454;28;20476;-85
2021/07/21 03:49:27;;;;;;;8.52;5.85;;;17.50;90.20;;;;;;4976610;28;20031;-85
2021/07/21 03:51:54;;;;;;;11.30;6.93;;;17.50;90.30;;;;;;4991730;28;20026;-84
2021/07/21 03:54:21;;;;;;;8.75;6.15;;;17.50;90.30;;;;;;4987164;28;20041;-86
2021/07/21 03:56:48;;;;;;;10.23;6.70;;;17.50;90.30;;;;;;4988372;28;20172;-86
2021/07/21 03:59:17;;;;;;;8.63;6.13;;;17.40;90.60;;;;;;5012886;28;20413;-86
2021/07/21 04:01:45;;;;;;;9.80;6.15;;;17.40;90.50;;;;;;4977220;28;20034;-85
2021/07/21 04:04:15;;;;;;;7.53;5.53;;;17.40;90.60;;;;;;4982803;28;20080;-86
2021/07/21 04:06:41;;;;;;;9.50;6.80;;;17.40;90.80;;;;;;4996030;28;20025;-87
2021/07/21 04:09:12;;;;;;;8.07;5.70;;;17.40;90.90;;;;;;4996179;28;20117;-87
2021/07/21 04:11:40;;;;;;;9.25;6.22;;;17.40;90.70;;;;;;4996007;28;20073;-86
2021/07/21 04:14:09;;;;;;;8.43;5.68;;;17.40;90.60;;;;;;5013716;28;20022;-86
2021/07/21 04:16:35;;;;;;;8.82;6.05;;;17.40;90.80;;;;;;5013255;28;20040;-86
2021/07/21 04:19:02;;;;;;;8.80;6.20;;;17.40;90.70;;;;;;4995500;28;20030;-87
2021/07/21 04:21:29;;;;;;;9.05;5.90;;;17.30;90.70;;;;;;4995682;28;20119;-85
2021/07/21 04:23:55;;;;;;;9.93;6.45;;;17.30;90.80;;;;;;4983672;28;20107;-85
2021/07/21 04:26:24;;;;;;;9.93;6.25;;;17.30;90.90;;;;;;5013213;28;20037;-86
2021/07/21 04:28:50;;;;;;;8.85;6.40;;;17.30;91.20;;;;;;4983597;28;20042;-86
2021/07/21 04:31:23;;;;;;;10.25;6.50;;;17.30;91.00;;;;;;4992063;28;20124;-86
2021/07/21 04:33:48;;;;;;;9.55;6.38;;;17.30;91.30;;;;;;4987662;28;20112;-86
2021/07/21 04:36:15;;;;;;;10.05;6.47;;;17.30;91.30;;;;;;5012892;28;20108;-89
2021/07/21 04:38:41;;;;;;;10.48;6.80;;;17.30;91.30;;;;;;4969611;28;20034;-86
2021/07/21 04:41:08;;;;;;;12.63;8.43;;;17.30;91.40;;;;;;4977184;28;20589;-85
2021/07/21 04:43:34;;;;;;;13.82;7.90;;;17.30;91.50;;;;;;4948556;28;20027;-85
2021/07/21 04:46:00;;;;;;;12.55;8.65;;;17.30;91.60;;;;;;4973552;28;20073;-86
2021/07/21 04:48:27;;;;;;;13.10;7.88;;;17.30;91.70;;;;;;4995114;28;20017;-85
2021/07/21 04:50:54;;;;;;;13.07;8.10;;;17.40;91.80;;;;;;4995374;28;20037;-86
2021/07/21 04:53:20;;;;;;;12.88;8.63;;;17.40;91.80;;;;;;4995019;28;20018;-85
2021/07/21 04:55:47;;;;;;;12.65;8.23;;;17.40;91.90;;;;;;4978998;28;20068;-86
2021/07/21 04:58:15;;;;;;;12.27;8.68;;;17.40;91.90;;;;;;4981212;28;20029;-85
2021/07/21 05:00:41;;;;;;;13.55;8.90;;;17.40;92.00;;;;;;4991859;28;20529;-86
2021/07/21 05:03:08;;;;;;;12.35;8.45;;;17.40;92.10;;;;;;4989348;28;20124;-87
2021/07/21 05:05:38;;;;;;;11.88;8.02;;;17.40;92.10;;;;;;4998541;28;20121;-86
2021/07/21 05:08:04;;;;;;;12.00;8.10;;;17.40;92.20;;;;;;4994456;28;20523;-86
2021/07/21 05:10:31;;;;;;;12.32;8.60;;;17.40;92.20;;;;;;5006691;28;20033;-85
2021/07/21 05:12:57;;;;;;;13.27;8.40;;;17.40;92.20;;;;;;4962730;28;20389;-85
2021/07/21 05:15:23;;;;;;;13.65;9.50;;;17.40;92.60;;;;;;4991507;28;20034;-85
2021/07/21 05:17:49;;;;;;;13.88;9.55;;;17.50;92.30;;;;;;4991612;28;20391;-86
2021/07/21 05:20:14;;;;;;;15.82;10.18;;;17.50;92.40;;;;;;4968103;28;20111;-85
2021/07/21 05:22:47;;;;;;;15.13;9.57;;;17.50;92.50;;;;;;4993292;28;20471;-87
2021/07/21 05:25:15;;;;;;;13.43;8.88;;;17.50;92.50;;;;;;4979439;28;20201;-86
2021/07/21 05:27:41;;;;;;;16.35;9.18;;;17.50;92.40;;;;;;4990527;28;20141;-86
2021/07/21 05:30:09;;;;;;;15.13;9.50;;;17.60;92.50;;;;;;4986010;28;20030;-85
2021/07/21 05:32:38;;;;;;;15.95;8.88;;;17.60;92.50;;;;;;4990301;28;20025;-86
2021/07/21 05:35:05;;;;;;;15.77;9.30;;;17.70;92.50;;;;;;4978227;28;20083;-87
2021/07/21 05:37:31;;;;;;;14.23;9.30;;;17.70;92.60;;;;;;5009177;28;20553;-86
2021/07/21 05:39:57;;;;;;;21.75;9.55;;;17.70;92.60;;;;;;4967682;28;20478;-86
2021/07/21 05:42:23;;;;;;;17.60;9.05;;;17.70;92.60;;;;;;4994011;28;20068;-86
2021/07/21 05:44:48;;;;;;;15.30;8.88;;;17.70;92.60;;;;;;4990505;28;20034;-86
2021/07/21 05:47:14;;;;;;;14.52;9.20;;;17.80;92.60;;;;;;4968215;28;20183;-86
2021/07/21 05:49:41;;;;;;;13.35;9.00;;;17.80;92.60;;;;;;4993421;28;20121;-86
2021/07/21 05:52:07;;;;;;;13.95;8.82;;;17.80;92.60;;;;;;5007140;28;20126;-86
2021/07/21 05:54:36;;;;;;;13.75;9.55;;;17.80;92.60;;;;;;4977011;28;20137;-86
2021/07/21 05:57:04;;;;;;;13.20;9.40;;;17.90;92.60;;;;;;4994147;28;20045;-88
2021/07/21 05:59:30;;;;;;;13.73;9.63;;;17.90;92.60;;;;;;4974242;28;20038;-86
2021/07/21 06:01:55;;;;;;;15.18;9.48;;;17.90;92.60;;;;;;4992888;28;20030;-87
2021/07/21 06:04:21;;;;;;;12.68;8.68;;;17.90;92.50;;;;;;4978073;28;20026;-91
2021/07/21 06:06:47;;;;;;;15.23;9.43;;;18.00;92.60;;;;;;4977826;28;20177;-86
2021/07/21 06:09:12;;;;;;;12.15;8.80;;;18.00;92.60;;;;;;4987017;28;20505;-87
2021/07/21 06:11:38;;;;;;;14.60;10.25;;;18.00;92.60;;;;;;4988642;28;20489;-86
2021/07/21 06:14:04;;;;;;;13.32;9.00;;;18.00;92.60;;;;;;4990846;28;20057;-87
2021/07/21 06:16:30;;;;;;;13.38;9.88;;;18.00;92.50;;;;;;4978253;28;20042;-87
2021/07/21 06:18:57;;;;;;;13.98;9.88;;;18.10;92.60;;;;;;4985556;28;20018;-86
2021/07/21 06:21:23;;;;;;;15.75;10.48;;;18.10;92.50;;;;;;4976282;28;20031;-90
2021/07/21 06:23:48;;;;;;;14.80;9.65;;;18.10;92.50;;;;;;4989446;28;20018;-88
2021/07/21 06:26:15;;;;;;;17.73;10.82;;;18.10;92.40;;;;;;5010538;28;20042;-85
2021/07/21 06:28:41;;;;;;;14.18;10.35;;;18.10;92.40;;;;;;5010129;28;20395;-85
2021/07/21 06:31:06;;;;;;;13.05;9.27;;;18.10;92.30;;;;;;4977283;28;20221;-87
2021/07/21 06:33:32;;;;;;;16.33;9.73;;;18.20;92.40;;;;;;4979381;28;20027;-86
2021/07/21 06:35:58;;;;;;;16.10;10.10;;;18.20;92.40;;;;;;4989659;28;20034;-88
2021/07/21 06:38:24;;;;;;;14.75;10.27;;;18.20;92.40;;;;;;5008729;28;20022;-88
2021/07/21 06:40:50;;;;;;;18.20;11.30;;;18.20;92.40;;;;;;4991025;28;20027;-86
2021/07/21 06:43:16;;;;;;;17.95;10.05;;;18.20;92.40;;;;;;5006298;28;20433;-87
2021/07/21 06:45:42;;;;;;;17.75;10.52;;;18.30;92.40;;;;;;4955901;28;20051;-85
2021/07/21 06:48:08;;;;;;;14.73;10.27;;;18.30;92.40;;;;;;4987028;28;20034;-86
2021/07/21 06:50:34;;;;;;;16.13;10.52;;;18.30;92.40;;;;;;4989433;28;20045;-88
2021/07/21 06:53:00;;;;;;;14.90;10.82;;;18.30;92.40;;;;;;4969371;28;20030;-85
2021/07/21 06:55:26;;;;;;;13.73;9.63;;;18.30;92.30;;;;;;4986872;28;20045;-87
2021/07/21 06:57:52;;;;;;;15.65;9.82;;;18.30;92.30;;;;;;5003695;28;20064;-86
2021/07/21 07:00:18;;;;;;;15.45;10.80;;;18.30;92.30;;;;;;4988882;28;20030;-84
2021/07/21 07:02:43;;;;;;;14.07;9.82;;;18.40;92.30;;;;;;4978606;28;20050;-86
2021/07/21 07:05:10;;;;;;;15.38;9.82;;;18.40;92.20;;;;;;4989862;28;20065;-86
2021/07/21 07:07:35;;;;;;;14.68;9.98;;;18.40;92.20;;;;;;4995803;28;20022;-86
2021/07/21 07:10:03;;;;;;;15.40;9.93;;;18.40;92.10;;;;;;4997232;28;20518;-90
2021/07/21 07:12:28;;;;;;;17.52;10.27;;;18.40;92.20;;;;;;4995038;28;20035;-88
2021/07/21 07:14:54;;;;;;;14.38;9.07;;;18.40;92.10;;;;;;4994541;28;20030;-87
2021/07/21 07:17:20;;;;;;;14.38;9.68;;;18.40;92.20;;;;;;4988758;28;20490;-88
2021/07/21 07:19:46;;;;;;;14.60;10.55;;;18.40;92.20;;;;;;4996430;28;20022;-87
2021/07/21 07:22:12;;;;;;;14.23;9.77;;;18.50;92.40;;;;;;5003507;28;20402;-88
2021/07/21 07:24:37;;;;;;;14.68;9.90;;;18.50;92.30;;;;;;4990144;28;20022;-88
2021/07/21 07:27:03;;;;;;;15.43;10.95;;;18.50;92.30;;;;;;4983602;28;20125;-88
2021/07/21 07:29:30;;;;;;;14.77;9.57;;;18.50;92.30;;;;;;4996244;28;20513;-91
2021/07/21 07:31:56;;;;;;;15.98;10.30;;;18.50;92.20;;;;;;5011367;28;20025;-87
2021/07/21 07:34:22;;;;;;;15.00;10.60;;;18.60;92.30;;;;;;4981038;28;20181;-87
2021/07/21 07:36:48;;;;;;;15.27;10.30;;;18.60;92.20;;;;;;4993514;28;20462;-88
2021/07/21 07:39:14;;;;;;;14.20;9.95;;;18.60;92.20;;;;;;4992990;28;20097;-86
2021/07/21 07:41:40;;;;;;;12.68;8.82;;;18.60;92.20;;;;;;4992990;28;20029;-87
2021/07/21 07:44:07;;;;;;;12.85;9.02;;;18.70;92.20;;;;;;4996780;28;20030;-88
2021/07/21 07:46:34;;;;;;;13.43;9.90;;;18.70;92.30;;;;;;5006442;28;20061;-86
2021/07/21 07:49:00;;;;;;;12.93;9.10;;;18.70;92.30;;;;;;4993402;28;20068;-87
2021/07/21 07:51:29;;;;;;;14.55;9.80;;;18.80;92.20;;;;;;4989741;28;20025;-86
2021/07/21 07:53:56;;;;;;;12.98;9.00;;;18.80;92.20;;;;;;5013876;28;20080;-86
2021/07/21 07:56:22;;;;;;;14.25;9.10;;;18.80;92.30;;;;;;4992721;28;20038;-87
2021/07/21 07:58:47;;;;;;;12.93;9.50;;;18.80;92.20;;;;;;4993727;28;20081;-85
2021/07/21 08:01:13;;;;;;;13.90;10.10;;;18.90;92.40;;;;;;4980068;28;20148;-87
2021/07/21 08:03:39;;;;;;;14.75;10.68;;;18.90;92.30;;;;;;5012164;28;20029;-86
2021/07/21 08:06:05;;;;;;;13.00;9.35;;;19.00;92.20;;;;;;4996178;28;20574;-85
2021/07/21 08:08:30;;;;;;;14.88;10.68;;;19.00;92.20;;;;;;4996007;28;20041;-86
2021/07/21 08:10:56;;;;;;;14.68;9.27;;;19.00;92.20;;;;;;5008364;28;20057;-85
2021/07/21 08:13:24;;;;;;;15.80;10.15;;;19.00;92.10;;;;;;4986307;28;20034;-85
2021/07/21 08:15:50;;;;;;;13.57;10.13;;;19.10;92.10;;;;;;4990066;28;20046;-85
2021/07/21 08:18:16;;;;;;;13.65;9.52;;;19.10;92.30;;;;;;4969929;28;20030;-87
2021/07/21 08:20:43;;;;;;;12.63;9.05;;;19.10;92.00;;;;;;4977980;28;20085;-86
2021/07/21 08:23:09;;;;;;;12.52;8.98;;;19.10;92.20;;;;;;4980072;28;20026;-86
2021/07/21 08:25:35;;;;;;;13.93;9.25;;;19.20;92.20;;;;;;5013115;28;20470;-87
2021/07/21 08:28:01;;;;;;;13.50;8.70;;;19.20;92.20;;;;;;4995624;28;20045;-86
2021/07/21 08:30:27;;;;;;;14.88;9.95;;;19.20;92.20;;;;;;5013460;28;20037;-86
2021/07/21 08:32:54;;;;;;;15.25;10.35;;;19.30;92.30;;;;;;4999393;28;20092;-88
2021/07/21 08:35:23;;;;;;;15.85;10.68;;;19.30;92.50;;;;;;5012709;28;20025;-86
2021/07/21 08:37:49;;;;;;;14.63;10.70;;;19.40;92.30;;;;;;5012771;28;20030;-87
2021/07/21 08:40:18;;;;;;;13.70;9.88;;;19.50;92.20;;;;;;4975571;28;20368;-86
2021/07/21 08:42:45;;;;;;;13.52;9.20;;;19.50;92.10;;;;;;4986711;28;20030;-86
2021/07/21 08:45:11;;;;;;;13.98;10.32;;;19.60;92.10;;;;;;4983393;28;20023;-88
2021/07/21 08:47:37;;;;;;;13.30;8.90;;;19.70;92.20;;;;;;4985172;28;20053;-87
2021/07/21 08:50:05;;;;;;;14.15;9.20;;;19.80;92.10;;;;;;4992679;28;20482;-86
2021/07/21 08:52:31;;;;;;;11.60;8.38;;;19.90;91.90;;;;;;4976050;28;20023;-87
2021/07/21 08:55:00;;;;;;;11.50;7.35;;;19.90;91.70;;;;;;4986086;28;20058;-87
2021/07/21 08:57:28;;;;;;;11.18;7.03;;;20.00;91.40;;;;;;4959926;28;20178;-86
2021/07/21 08:59:55;;;;;;;10.15;6.25;;;20.10;91.20;;;;;;4992865;28;20027;-87
2021/07/21 09:02:22;;;;;;;12.23;6.30;;;20.20;91.00;;;;;;4998136;28;20084;-87
2021/07/21 09:04:47;;;;;;;7.70;5.38;;;20.20;90.90;;;;;;5012599;28;20030;-86
2021/07/21 09:07:13;;;;;;;9.07;5.88;;;20.30;90.80;;;;;;5012386;28;20025;-86
2021/07/21 09:09:39;;;;;;;8.20;5.32;;;20.30;90.70;;;;;;4991459;28;20403;-87
2021/07/21 09:12:07;;;;;;;9.15;6.25;;;20.40;90.60;;;;;;4990156;28;20490;-87
2021/07/21 09:14:33;;;;;;;11.05;6.20;;;20.50;90.50;;;;;;4994732;28;20022;-86
2021/07/21 09:17:10;;;;;;;10.05;5.72;;;20.50;90.40;;;;;;4991256;28;20494;-88
2021/07/21 09:19:41;;;;;;;7.47;5.00;;;20.60;90.30;;;;;;4982210;28;20080;-87
2021/07/21 09:22:28;;;;;;;7.43;4.97;;;20.70;90.10;;;;;;4987131;28;20026;-86
2021/07/21 09:25:16;;;;;;;7.90;4.72;;;20.70;90.20;;;;;;4991424;28;20010;-86
2021/07/21 09:27:48;;;;;;;7.05;5.18;;;20.80;89.30;;;;;;4988886;28;20066;-87
2021/07/21 09:30:31;;;;;;;7.40;4.72;;;20.90;89.00;;;;;;4998476;28;20026;-88
2021/07/21 09:33:05;;;;;;;7.30;4.45;;;20.90;88.40;;;;;;4994155;28;20057;-88
2021/07/21 09:35:44;;;;;;;7.78;4.53;;;21.00;87.70;;;;;;4991165;28;20048;-88
2021/07/21 09:38:13;;;;;;;9.90;5.15;;;21.00;87.10;;;;;;4986839;28;20033;-88
2021/07/21 09:40:42;;;;;;;7.97;4.18;;;21.10;86.50;;;;;;4994547;28;20022;-86
2021/07/21 09:43:13;;;;;;;7.05;4.82;;;21.10;85.90;;;;;;4986845;28;20076;-86
2021/07/21 09:45:41;;;;;;;7.55;4.32;;;21.20;85.30;;;;;;4994910;28;20050;-87
2021/07/21 09:48:07;;;;;;;6.47;4.25;;;21.30;85.20;;;;;;5013355;28;20026;-86
2021/07/21 09:50:35;;;;;;;7.10;4.60;;;21.30;85.20;;;;;;4974509;28;20029;-87
2021/07/21 09:53:05;;;;;;;6.72;4.32;;;21.40;83.10;;;;;;4967946;28;20125;-87
2021/07/21 09:55:33;;;;;;;7.40;4.88;;;21.50;81.60;;;;;;4993370;28;20030;-86
2021/07/21 09:58:02;;;;;;;8.48;4.30;;;21.50;81.90;;;;;;4985387;28;20026;-87
2021/07/21 10:00:30;;;;;;;6.60;4.60;;;21.60;81.70;;;;;;4991166;28;20117;-86
2021/07/21 10:03:11;;;;;;;5.95;4.05;;;21.60;82.40;;;;;;4999226;28;20021;-88
2021/07/21 10:05:56;;;;;;;;;;;21.70;81.90;;;;;;4994870;28;20028;-87
2021/07/21 10:08:27;;;;;;;5.50;3.88;;;21.80;81.30;;;;;;4982449;28;19909;-87
2021/07/21 10:10:54;;;;;;;5.68;3.78;;;21.90;81.20;;;;;;5011167;28;20032;-86
2021/07/21 10:13:20;;;;;;;8.93;4.40;;;22.00;81.00;;;;;;5000927;28;20026;-88
2021/07/21 10:15:46;;;;;;;6.97;4.53;;;22.00;79.30;;;;;;4975185;28;20026;-86
2021/07/21 10:18:17;;;;;;;6.43;4.25;;;22.10;78.50;;;;;;4969079;28;20030;-87
2021/07/21 10:20:44;;;;;;;6.53;4.30;;;22.10;78.60;;;;;;4993996;28;20031;-86
2021/07/21 10:23:15;;;;;;;7.22;4.65;;;22.20;77.50;;;;;;4993817;28;20026;-87
2021/07/21 10:25:41;;;;;;;7.60;4.60;;;22.20;75.50;;;;;;4994304;28;20022;-86
2021/07/21 10:28:08;;;;;;;7.63;5.35;;;22.30;74.80;;;;;;4981320;28;20095;-86
2021/07/21 10:30:36;;;;;;;7.80;5.63;;;22.40;73.50;;;;;;4991003;28;20031;-87
2021/07/21 10:33:03;;;;;;;7.25;4.97;;;22.40;73.10;;;;;;5009769;28;20018;-86
2021/07/21 10:35:30;;;;;;;8.38;5.43;;;22.50;73.40;;;;;;4990387;28;20052;-86
2021/07/21 10:37:57;;;;;;;7.80;5.03;;;22.50;72.90;;;;;;4991771;28;20386;-87
2021/07/21 10:40:28;;;;;;;7.50;5.05;;;22.60;73.30;;;;;;4984458;28;20029;-88
2021/07/21 10:42:56;;;;;;;7.32;4.72;;;22.70;72.80;;;;;;4979388;28;20026;-88
2021/07/21 10:45:30;;;;;;;8.55;5.10;;;22.70;73.30;;;;;;5014710;28;20065;-88
2021/07/21 10:48:10;;;;;;;7.00;4.85;;;22.90;72.70;;;;;;4994497;28;20030;-88
2021/07/21 10:59:12;;;;;;;7.82;4.63;;;23.10;71.50;;;;;;5001210;28;20308;-84
2021/07/21 11:01:42;;;;;;;8.15;4.53;;;23.20;71.40;;;;;;4997288;28;20029;-84
2021/07/21 11:04:08;;;;;;;6.72;4.50;;;23.20;71.70;;;;;;4993410;28;20483;-83
2021/07/21 11:06:52;;;;;;;6.15;4.30;;;23.30;71.50;;;;;;4972389;28;20052;-82
2021/07/21 11:09:34;;;;;;;6.72;4.93;;;23.40;71.70;;;;;;4996872;28;20038;-82
2021/07/21 11:12:01;;;;;;;6.95;4.65;;;23.50;70.90;;;;;;5014169;28;20088;-83
2021/07/21 11:14:28;;;;;;;6.57;4.32;;;23.60;71.10;;;;;;4980637;28;20117;-82
2021/07/21 11:17:13;;;;;;;6.93;4.80;;;23.60;71.20;;;;;;4995416;28;20380;-82
2021/07/21 11:19:52;;;;;;;7.00;4.75;;;23.70;71.40;;;;;;4993447;28;20556;-83
2021/07/21 11:22:24;;;;;;;6.03;4.20;;;23.70;70.30;;;;;;4991163;28;20092;-89
2021/07/21 11:25:03;;;;;;;6.90;4.75;;;23.80;70.60;;;;;;5014848;28;20389;-89
2021/07/21 11:27:59;;;;;;;7.75;4.75;;;23.80;71.20;;;;;;5014627;28;20052;-88
2021/07/21 11:30:50;;;;;;;6.85;4.68;;;23.90;70.20;;;;;;5006633;28;20033;-85
2021/07/21 11:33:34;;;;;;;;;;;23.90;70.00;;;;;;5006668;28;20026;-86
2021/07/21 11:36:00;;;;;;;5.90;3.85;;;23.90;70.50;;;;;;5007073;28;19913;-86
2021/07/21 11:38:45;;;;;;;6.13;4.45;;;24.00;70.90;;;;;;4995598;28;20363;-86
2021/07/21 11:41:31;;;;;;;6.03;4.28;;;24.10;69.60;;;;;;5011264;28;20018;-86
2021/07/21 11:44:03;;;;;;;6.70;4.72;;;24.10;70.80;;;;;;4983159;28;20065;-83
2021/07/21 11:46:29;;;;;;;6.85;4.82;;;24.10;69.10;;;;;;4976158;28;20575;-84
2021/07/21 11:48:54;;;;;;;7.75;5.18;;;24.20;69.30;;;;;;4978139;28;20030;-83
2021/07/21 11:51:20;;;;;;;7.45;4.57;;;24.20;68.30;;;;;;5008632;28;20038;-83
2021/07/21 11:53:47;;;;;;;6.25;4.22;;;24.20;68.40;;;;;;4995334;28;20054;-90
2021/07/21 11:56:18;;;;;;;5.25;4.07;;;24.20;68.50;;;;;;4995691;28;20026;-88
2021/07/21 11:58:44;;;;;;;7.03;4.50;;;24.30;68.60;;;;;;5004053;28;20080;-89
2021/07/21 12:01:09;;;;;;;6.18;4.32;;;24.30;68.80;;;;;;4995803;28;20067;-87
2021/07/21 12:03:48;;;;;;;6.30;4.30;;;24.40;69.90;;;;;;4993847;28;20026;-88
2021/07/21 12:06:23;;;;;;;6.75;4.15;;;24.50;69.60;;;;;;4992508;28;20053;-85
2021/07/21 12:08:56;;;;;;;6.40;4.82;;;24.60;69.90;;;;;;5000668;28;20037;-94
2021/07/21 12:11:27;;;;;;;5.40;4.07;;;24.60;69.70;;;;;;4996416;28;20013;-91
2021/07/21 12:14:04;;;;;;;5.88;4.40;;;24.70;69.80;;;;;;5003533;28;20033;-90
2021/07/21 12:16:37;;;;;;;6.28;4.43;;;24.80;70.10;;;;;;4995220;28;20033;-91
2021/07/21 12:19:05;;;;;;;6.40;4.88;;;24.90;70.70;;;;;;4993428;28;20026;-91
2021/07/21 12:21:33;;;;;;;8.50;4.95;;;25.00;68.80;;;;;;5008391;28;20028;-93
2021/07/21 12:24:04;;;;;;;7.68;5.00;;;25.10;68.70;;;;;;4991823;28;20034;-91
2021/07/21 12:27:05;;;;;;;6.85;4.97;;;25.10;67.70;;;;;;4993596;28;20073;-92
2021/07/21 12:29:29;;;;;;;6.43;4.90;;;25.10;67.50;;;;;;5013935;28;20041;-93
2021/07/21 12:32:11;;;;;;;7.20;5.28;;;25.10;67.60;;;;;;4994159;28;20417;-93
2021/07/21 12:34:39;;;;;;;7.10;4.90;;;25.10;66.60;;;;;;4985545;28;20022;-92
2021/07/21 12:37:07;;;;;;;7.03;4.82;;;25.20;67.30;;;;;;4987845;28;20026;-87
2021/07/21 12:39:33;;;;;;;6.22;4.47;;;25.20;67.70;;;;;;4996431;28;20542;-87
2021/07/21 12:42:08;;;;;;;6.28;4.53;;;25.20;68.10;;;;;;4995536;28;20052;-87
2021/07/21 12:44:45;;;;;;;7.90;4.95;;;25.30;68.20;;;;;;5013875;28;20034;-87
2021/07/21 12:47:16;;;;;;;7.05;5.32;;;25.40;65.80;;;;;;4997829;28;20081;-87
2021/07/21 12:49:44;;;;;;;5.90;4.60;;;25.40;66.40;;;;;;4993412;28;20092;-88
2021/07/21 12:52:15;;;;;;;6.57;5.05;;;25.50;66.30;;;;;;5011036;28;20034;-88
2021/07/21 12:54:46;;;;;;;;;;;25.60;66.30;;;;;;5004236;28;20080;-87
2021/07/21 12:57:11;;;;;;;6.63;4.85;;;25.60;66.00;;;;;;4994611;28;19906;-87
2021/07/21 12:59:38;;;;;;;7.38;5.03;;;25.70;66.90;;;;;;4991524;28;20121;-89
2021/07/21 13:02:08;;;;;;;7.05;5.32;;;25.70;66.80;;;;;;4998678;28;20034;-87
2021/07/21 13:04:34;;;;;;;7.32;5.60;;;25.80;65.70;;;;;;4994727;28;20084;-87